createdAt,value
2022-10-17T00:02:15.227Z,97.88
2022-10-17T00:04:41.742Z,97.79
2022-10-17T00:07:08.163Z,98.06
2022-10-17T00:09:34.618Z,97.83
2022-10-17T00:12:02.614Z,98.46
2022-10-17T00:14:29.052Z,98.42
2022-10-17T00:16:55.485Z,98.20
2022-10-17T00:19:21.914Z,97.59
2022-10-17T00:21:49.359Z,97.54
2022-10-17T00:24:15.782Z,97.30
2022-10-17T00:26:42.281Z,97.68
2022-10-17T00:29:08.938Z,97.45
2022-10-17T00:31:35.743Z,97.06
2022-10-17T00:34:02.242Z,97.22
2022-10-17T00:36:29.538Z,97.94
2022-10-17T00:38:58.933Z,97.41
2022-10-17T00:41:29.070Z,97.66
2022-10-17T00:44:01.693Z,97.23
2022-10-17T00:46:31.369Z,97.03
2022-10-17T00:49:00.881Z,96.92
2022-10-17T00:51:39.690Z,97.34
2022-10-17T00:54:06.850Z,96.96
2022-10-17T00:56:33.960Z,96.22
2022-10-17T00:59:00.689Z,95.47
2022-10-17T01:01:27.287Z,94.85
2022-10-17T01:03:53.850Z,95.30
2022-10-17T01:06:20.261Z,95.90
2022-10-17T01:08:46.919Z,96.48
2022-10-17T01:11:19.065Z,97.72
2022-10-17T01:14:09.044Z,99.28
2022-10-17T01:16:45.760Z,100.00
2022-10-17T01:19:44.540Z,100.00
2022-10-17T01:22:25.739Z,100.00
2022-10-17T01:25:12.664Z,100.00
2022-10-17T01:28:15.405Z,99.66
2022-10-17T01:31:03.030Z,98.74
2022-10-17T01:33:37.094Z,96.87
2022-10-17T01:36:32.604Z,97.88
2022-10-17T01:39:06.342Z,98.42
2022-10-17T01:42:03.012Z,98.51
2022-10-17T01:44:37.795Z,99.39
2022-10-17T01:47:13.509Z,98.14
2022-10-17T01:49:44.031Z,98.18
2022-10-17T01:52:27.486Z,98.07
2022-10-17T01:54:57.191Z,99.50
2022-10-17T01:57:44.082Z,99.97
2022-10-17T02:11:06.151Z,98.31
2022-10-17T02:13:46.295Z,97.86
2022-10-17T02:16:21.929Z,97.36
2022-10-17T02:18:51.339Z,97.07
2022-10-17T02:21:28.330Z,96.58
2022-10-17T02:24:01.174Z,96.39
2022-10-17T02:26:34.212Z,96.41
2022-10-17T02:29:03.664Z,96.60
2022-10-17T02:31:38.582Z,96.01
2022-10-17T02:34:43.331Z,95.92
2022-10-17T02:37:13.665Z,95.37
2022-10-17T02:39:42.918Z,94.81
2022-10-17T02:42:11.889Z,94.78
2022-10-17T02:44:42.358Z,95.55
2022-10-17T02:47:21.930Z,93.79
2022-10-17T02:49:52.643Z,93.58
2022-10-17T02:52:23.967Z,93.53
2022-10-17T02:54:59.928Z,95.17
2022-10-17T02:57:39.303Z,96.03
2022-10-17T03:00:10.063Z,97.00
2022-10-17T03:02:55.034Z,97.29
2022-10-17T03:05:23.853Z,96.11
2022-10-17T03:07:55.912Z,98.18
2022-10-17T03:10:23.095Z,98.28
2022-10-17T03:12:49.514Z,97.79
2022-10-17T03:15:16.043Z,97.61
2022-10-17T03:17:42.712Z,96.73
2022-10-17T03:20:09.693Z,98.46
2022-10-17T03:22:36.574Z,98.04
2022-10-17T03:25:05.414Z,98.97
2022-10-17T03:27:34.660Z,99.36
2022-10-17T03:30:01.089Z,100.00
2022-10-17T03:32:27.562Z,100.00
2022-10-17T03:34:53.992Z,100.00
2022-10-17T03:37:20.382Z,100.00
2022-10-17T03:39:46.787Z,100.00
2022-10-17T03:42:13.218Z,100.00
2022-10-17T03:44:39.617Z,100.00
2022-10-17T03:47:08.161Z,100.00
2022-10-17T03:49:36.936Z,100.00
2022-10-17T03:52:03.655Z,100.00
2022-10-17T03:54:30.177Z,100.00
2022-10-17T03:59:24.377Z,100.00
2022-10-17T04:01:50.832Z,100.00
2022-10-17T04:04:17.240Z,100.00
2022-10-17T04:06:43.659Z,100.00
2022-10-17T04:09:11.001Z,100.00
2022-10-17T04:11:37.525Z,100.00
2022-10-17T04:14:04.074Z,100.00
2022-10-17T04:16:30.571Z,100.00
2022-10-17T04:18:59.201Z,100.00
2022-10-17T04:21:27.508Z,100.00
2022-10-17T04:23:55.240Z,100.00
2022-10-17T04:26:22.112Z,100.00
2022-10-17T04:28:48.684Z,100.00
2022-10-17T04:31:15.950Z,100.00
2022-10-17T04:33:42.665Z,100.00
2022-10-17T04:36:16.893Z,100.00
2022-10-17T04:38:43.450Z,100.00
2022-10-17T04:41:15.323Z,100.00
2022-10-17T04:43:44.418Z,100.00
2022-10-17T04:46:15.194Z,100.00
2022-10-17T04:48:42.468Z,100.00
2022-10-17T04:51:12.815Z,100.00
2022-10-17T04:53:42.518Z,100.00
2022-10-17T04:56:15.401Z,100.00
2022-10-17T04:58:43.106Z,100.00
2022-10-17T05:01:12.746Z,100.00
2022-10-17T05:03:39.677Z,100.00
2022-10-17T05:06:11.436Z,100.00
2022-10-17T05:08:38.293Z,100.00
2022-10-17T05:11:05.957Z,100.00
2022-10-17T05:13:33.752Z,100.00
2022-10-17T05:16:01.237Z,100.00
2022-10-17T05:18:28.756Z,100.00
2022-10-17T05:20:55.489Z,100.00
2022-10-17T05:23:21.971Z,100.00
2022-10-17T05:25:48.365Z,100.00
2022-10-17T05:28:14.789Z,100.00
2022-10-17T05:30:41.207Z,100.00
2022-10-17T05:33:07.656Z,100.00
2022-10-17T05:35:34.081Z,100.00
2022-10-17T05:38:00.616Z,100.00
2022-10-17T05:40:27.353Z,100.00
2022-10-17T05:42:53.898Z,100.00
2022-10-17T05:45:20.365Z,100.00
2022-10-17T05:47:46.831Z,100.00
2022-10-17T05:50:13.310Z,100.00
2022-10-17T05:52:40.552Z,100.00
2022-10-17T05:55:09.031Z,100.00
2022-10-17T05:57:35.667Z,100.00
2022-10-17T06:00:02.232Z,100.00
2022-10-17T06:02:29.089Z,100.00
2022-10-17T06:04:55.796Z,100.00
2022-10-17T06:07:22.264Z,100.00
2022-10-17T06:09:48.696Z,100.00
2022-10-17T06:12:15.145Z,100.00
2022-10-17T06:14:41.584Z,100.00
2022-10-17T06:17:12.143Z,100.00
2022-10-17T06:19:41.495Z,100.00
2022-10-17T06:22:07.992Z,100.00
2022-10-17T06:24:34.395Z,100.00
2022-10-17T06:27:00.857Z,100.00
2022-10-17T06:29:27.278Z,100.00
2022-10-17T06:31:54.408Z,97.75
2022-10-17T06:34:21.138Z,94.82
2022-10-17T06:36:48.275Z,95.36
2022-10-17T06:39:15.062Z,92.17
2022-10-17T06:41:41.677Z,89.27
2022-10-17T06:44:11.224Z,89.83
2022-10-17T06:46:41.041Z,86.93
2022-10-17T06:49:07.792Z,88.25
2022-10-17T06:51:37.915Z,85.16
2022-10-17T06:54:04.916Z,83.87
2022-10-17T06:56:31.321Z,83.33
2022-10-17T06:58:57.755Z,83.20
2022-10-17T07:01:24.217Z,82.16
2022-10-17T07:03:50.678Z,81.41
2022-10-17T07:06:17.983Z,81.87
2022-10-17T07:08:45.632Z,81.43
2022-10-17T07:11:14.500Z,79.97
2022-10-17T07:13:41.770Z,80.36
2022-10-17T07:16:08.489Z,78.06
2022-10-17T07:18:35.080Z,78.77
2022-10-17T07:21:01.849Z,78.32
2022-10-17T07:23:28.372Z,77.85
2022-10-17T07:26:03.557Z,78.78
2022-10-17T07:28:30.115Z,78.32
2022-10-17T07:30:56.514Z,77.28
2022-10-17T07:33:24.846Z,76.03
2022-10-17T07:35:52.772Z,75.14
2022-10-17T07:38:19.213Z,75.35
2022-10-17T07:40:45.690Z,73.01
2022-10-17T07:43:12.133Z,72.97
2022-10-17T07:45:38.650Z,72.27
2022-10-17T07:48:05.364Z,73.01
2022-10-17T07:50:33.147Z,73.34
2022-10-17T07:52:59.448Z,70.57
2022-10-17T07:55:25.845Z,70.77
2022-10-17T07:57:52.348Z,69.90
2022-10-17T08:00:18.805Z,70.62
2022-10-17T08:02:45.220Z,71.04
2022-10-17T08:05:11.669Z,71.31
2022-10-17T08:07:39.008Z,70.45
2022-10-17T08:10:06.010Z,70.28
2022-10-17T08:12:34.362Z,70.45
2022-10-17T08:15:01.381Z,68.97
2022-10-17T08:17:27.978Z,67.68
2022-10-17T08:19:54.381Z,68.01
2022-10-17T08:22:20.798Z,66.94
2022-10-17T08:24:47.468Z,66.53
2022-10-17T08:27:14.128Z,65.16
2022-10-17T08:29:40.883Z,62.48
2022-10-17T08:32:09.934Z,62.36
2022-10-17T08:34:37.814Z,62.21
2022-10-17T08:37:07.035Z,62.70
2022-10-17T08:39:33.475Z,62.46
2022-10-17T08:42:05.638Z,61.87
2022-10-17T08:45:13.790Z,59.63
2022-10-17T08:47:45.156Z,59.06
2022-10-17T08:50:20.835Z,60.76
2022-10-17T08:52:53.810Z,58.41
2022-10-17T08:55:45.853Z,57.06
2022-10-17T08:58:44.822Z,57.97
2022-10-17T09:01:20.355Z,56.70
2022-10-17T09:04:15.200Z,58.43
2022-10-17T09:06:54.861Z,57.07
2022-10-17T09:09:58.579Z,57.26
2022-10-17T09:12:46.705Z,58.69
2022-10-17T09:15:41.529Z,58.62
2022-10-17T09:18:22.235Z,57.30
2022-10-17T09:20:57.941Z,56.97
2022-10-17T09:23:30.120Z,59.15
2022-10-17T09:25:59.927Z,58.71
2022-10-17T09:28:36.076Z,58.80
2022-10-17T09:31:11.696Z,59.25
2022-10-17T09:33:56.640Z,59.74
2022-10-17T09:36:28.649Z,59.83
2022-10-17T09:39:14.712Z,59.96
2022-10-17T09:41:49.530Z,60.35
2022-10-17T09:44:18.311Z,60.13
2022-10-17T09:46:57.034Z,61.03
2022-10-17T09:49:31.990Z,60.87
2022-10-17T09:51:59.927Z,60.06
2022-10-17T09:54:40.293Z,59.90
2022-10-17T09:57:10.315Z,60.63
2022-10-17T09:59:39.647Z,58.15
2022-10-17T10:02:14.332Z,58.95
2022-10-17T10:05:04.342Z,58.11
2022-10-17T10:07:38.128Z,59.74
2022-10-17T10:10:08.076Z,59.75
2022-10-17T10:12:38.234Z,59.36
2022-10-17T10:15:32.099Z,57.60
2022-10-17T10:17:58.537Z,57.77
2022-10-17T10:20:31.756Z,58.54
2022-10-17T10:23:05.058Z,58.38
2022-10-17T10:25:31.518Z,57.97
2022-10-17T10:28:00.668Z,58.88
2022-10-17T10:30:32.059Z,57.59
2022-10-17T10:33:01.700Z,58.31
2022-10-17T10:35:34.534Z,59.15
2022-10-17T10:38:03.994Z,59.82
2022-10-17T10:40:45.119Z,59.50
2022-10-17T10:43:23.375Z,59.91
2022-10-17T10:45:51.209Z,60.22
2022-10-17T10:48:20.663Z,60.40
2022-10-17T10:50:52.685Z,61.02
2022-10-17T10:53:30.771Z,62.14
2022-10-17T10:56:27.119Z,62.26
2022-10-17T10:58:56.929Z,61.85
2022-10-17T11:01:39.527Z,62.16
2022-10-17T11:04:21.655Z,61.54
2022-10-17T11:06:52.551Z,62.04
2022-10-17T11:09:45.099Z,62.00
2022-10-17T11:12:20.761Z,62.11
2022-10-17T11:15:09.534Z,63.11
2022-10-17T11:17:39.222Z,62.91
2022-10-17T11:20:08.626Z,62.78
2022-10-17T11:22:57.487Z,63.11
2022-10-17T11:25:40.841Z,63.42
2022-10-17T11:28:16.369Z,63.47
2022-10-17T11:31:03.311Z,63.51
2022-10-17T11:34:04.714Z,62.98
2022-10-17T11:36:41.928Z,64.08
2022-10-17T11:39:17.001Z,64.01
2022-10-17T11:41:51.909Z,64.12
2022-10-17T11:44:39.232Z,63.87
2022-10-17T11:47:39.953Z,63.63
2022-10-17T11:53:31.261Z,65.07
2022-10-17T11:56:00.723Z,64.40
2022-10-17T11:58:49.034Z,64.49
2022-10-17T12:01:31.807Z,64.78
2022-10-17T12:04:16.909Z,64.26
2022-10-17T12:07:05.534Z,63.75
2022-10-17T12:09:46.114Z,64.09
2022-10-17T12:12:24.249Z,64.25
2022-10-17T12:14:50.694Z,63.80
2022-10-17T12:17:32.836Z,63.11
2022-10-17T12:20:23.411Z,62.99
2022-10-17T12:22:53.118Z,63.12
2022-10-17T12:25:21.565Z,62.26
2022-10-17T12:27:50.067Z,60.09
2022-10-17T12:30:25.944Z,60.58
2022-10-17T12:33:18.982Z,59.44
2022-10-17T12:35:45.395Z,58.64
2022-10-17T12:38:15.199Z,58.50
2022-10-17T12:40:46.301Z,57.75
2022-10-17T12:43:15.285Z,58.18
2022-10-17T12:45:53.806Z,58.48
2022-10-17T12:48:38.587Z,58.37
2022-10-17T12:54:08.053Z,58.07
2022-10-17T12:56:37.965Z,57.61
2022-10-17T12:59:13.576Z,59.27
2022-10-17T13:01:43.635Z,58.61
2022-10-17T13:04:10.798Z,59.45
2022-10-17T13:06:44.882Z,59.07
2022-10-17T13:09:38.341Z,60.12
2022-10-17T13:12:05.550Z,59.54
2022-10-17T13:14:33.238Z,59.52
2022-10-17T13:17:07.554Z,58.95
2022-10-17T13:19:45.082Z,59.36
2022-10-17T13:22:20.760Z,59.94
2022-10-17T13:24:48.684Z,59.28
2022-10-17T13:27:29.142Z,60.05
2022-10-17T13:29:58.266Z,60.65
2022-10-17T13:32:34.474Z,60.84
2022-10-17T13:35:17.168Z,60.70
2022-10-17T13:37:49.183Z,60.28
2022-10-17T13:40:40.777Z,60.57
2022-10-17T13:43:17.373Z,60.50
2022-10-17T13:45:51.184Z,60.27
2022-10-17T13:48:21.872Z,60.47
2022-10-17T13:50:52.378Z,61.04
2022-10-17T13:53:25.220Z,60.79
2022-10-17T13:56:22.931Z,61.35
2022-10-17T13:58:49.677Z,60.96
2022-10-17T14:01:18.314Z,59.55
2022-10-17T14:03:48.957Z,59.73
2022-10-17T14:06:30.903Z,60.64
2022-10-17T14:09:06.254Z,60.89
2022-10-17T14:11:37.774Z,60.92
2022-10-17T14:14:07.627Z,60.75
2022-10-17T14:16:38.602Z,60.26
2022-10-17T14:19:06.773Z,60.69
2022-10-17T14:21:43.407Z,60.48
2022-10-17T14:24:28.323Z,61.48
2022-10-17T14:26:58.917Z,61.69
2022-10-17T14:29:31.509Z,61.50
2022-10-17T14:32:08.555Z,61.38
2022-10-17T14:34:37.926Z,62.30
2022-10-17T14:37:31.091Z,62.86
2022-10-17T14:40:01.557Z,62.81
2022-10-17T14:42:28.506Z,63.25
2022-10-17T14:45:03.684Z,63.61
2022-10-17T14:47:42.770Z,63.98
2022-10-17T14:50:12.709Z,63.80
2022-10-17T14:52:40.768Z,63.82
2022-10-17T14:55:28.054Z,64.84
2022-10-17T14:57:54.551Z,65.07
2022-10-17T15:00:22.687Z,65.81
2022-10-17T15:02:50.635Z,66.31
2022-10-17T15:05:18.030Z,66.46
2022-10-17T15:07:44.559Z,66.80
2022-10-17T15:10:23.186Z,67.17
2022-10-17T15:12:58.748Z,66.96
2022-10-17T15:15:28.033Z,67.00
2022-10-17T15:17:54.544Z,68.05
2022-10-17T15:20:25.897Z,68.23
2022-10-17T15:22:53.605Z,68.95
2022-10-17T15:25:20.520Z,68.89
2022-10-17T15:27:46.937Z,69.53
2022-10-17T15:30:21.690Z,71.15
2022-10-17T15:32:49.463Z,72.85
2022-10-17T15:35:16.825Z,73.05
2022-10-17T15:37:43.979Z,72.84
2022-10-17T15:40:16.446Z,74.17
2022-10-17T15:42:42.980Z,74.90
2022-10-17T15:45:15.798Z,74.51
2022-10-17T15:47:49.213Z,74.64
2022-10-17T15:50:17.288Z,75.29
2022-10-17T15:52:44.158Z,77.25
2022-10-17T15:55:10.842Z,77.27
2022-10-17T15:57:40.536Z,79.35
2022-10-17T16:00:16.671Z,79.03
2022-10-17T16:02:43.466Z,80.05
2022-10-17T16:05:29.116Z,81.24
2022-10-17T16:07:57.447Z,81.63
2022-10-17T16:10:25.444Z,82.20
2022-10-17T16:12:52.332Z,82.60
2022-10-17T16:15:27.926Z,82.60
2022-10-17T16:17:56.516Z,82.26
2022-10-17T16:20:24.366Z,85.00
2022-10-17T16:22:51.340Z,84.49
2022-10-17T16:25:25.295Z,86.28
2022-10-17T16:27:53.955Z,86.39
2022-10-17T16:32:54.294Z,86.80
2022-10-17T16:35:33.160Z,87.27
2022-10-17T16:38:03.310Z,88.29
2022-10-17T16:40:29.759Z,89.16
2022-10-17T16:42:56.197Z,90.96
2022-10-17T16:45:23.264Z,92.02
2022-10-17T16:47:50.662Z,91.80
2022-10-17T16:50:17.358Z,91.56
2022-10-17T16:52:43.792Z,92.07
2022-10-17T16:55:10.474Z,91.16
2022-10-17T16:57:36.971Z,92.52
2022-10-17T17:00:06.072Z,92.14
2022-10-17T17:02:32.744Z,90.66
2022-10-17T17:04:59.385Z,91.52
2022-10-17T17:07:29.363Z,91.68
2022-10-17T17:09:56.302Z,93.02
2022-10-17T17:12:22.970Z,92.43
2022-10-17T17:14:49.367Z,92.88
2022-10-17T17:17:24.646Z,92.61
2022-10-17T17:20:02.613Z,93.35
2022-10-17T17:22:29.184Z,93.81
2022-10-17T17:24:55.621Z,94.31
2022-10-17T17:27:24.318Z,92.44
2022-10-17T17:29:50.823Z,92.96
2022-10-17T17:32:17.333Z,92.76
2022-10-17T17:34:43.749Z,94.63
2022-10-17T17:37:10.172Z,93.20
2022-10-17T17:39:36.588Z,94.25
2022-10-17T17:42:03.193Z,94.18
2022-10-17T17:44:29.624Z,93.36
2022-10-17T17:46:56.134Z,93.80
2022-10-17T17:49:22.842Z,93.43
2022-10-17T17:51:49.354Z,93.75
2022-10-17T17:54:15.946Z,94.16
2022-10-17T17:56:42.457Z,93.98
2022-10-17T17:59:11.399Z,93.41
2022-10-17T18:01:38.991Z,93.04
2022-10-17T18:04:08.649Z,94.80
2022-10-17T18:06:36.501Z,94.52
2022-10-17T18:09:04.356Z,94.71
2022-10-17T18:11:31.071Z,93.00
2022-10-17T18:14:01.584Z,94.39
2022-10-17T18:16:29.301Z,94.33
2022-10-17T18:18:56.829Z,94.45
2022-10-17T18:21:23.846Z,96.00
2022-10-17T18:23:51.829Z,96.86
2022-10-17T18:26:19.129Z,97.93
2022-10-17T18:28:46.590Z,98.05
2022-10-17T18:31:19.743Z,98.27
2022-10-17T18:33:46.537Z,98.18
2022-10-17T18:36:15.564Z,98.29
2022-10-17T18:38:42.944Z,98.70
2022-10-17T18:41:15.910Z,97.52
2022-10-17T18:43:45.036Z,98.23
2022-10-17T18:46:14.932Z,98.92
2022-10-17T18:48:44.522Z,100.00
2022-10-17T18:51:12.499Z,100.00
2022-10-17T18:53:41.202Z,100.00
2022-10-17T18:56:08.712Z,99.74
2022-10-17T18:58:36.334Z,100.00
2022-10-17T19:01:04.533Z,100.00
2022-10-17T19:03:31.318Z,100.00
2022-10-17T19:06:01.868Z,100.00
2022-10-17T19:08:28.429Z,100.00
2022-10-17T19:10:54.861Z,100.00
2022-10-17T19:13:21.747Z,100.00
2022-10-17T19:15:48.355Z,100.00
2022-10-17T19:18:14.782Z,100.00
2022-10-17T19:20:41.228Z,100.00
2022-10-17T19:23:13.522Z,100.00
2022-10-17T19:25:39.946Z,100.00
2022-10-17T19:28:06.420Z,100.00
2022-10-17T19:30:32.857Z,100.00
2022-10-17T19:32:59.339Z,100.00
2022-10-17T19:35:25.825Z,100.00
2022-10-17T19:37:52.329Z,100.00
2022-10-17T19:40:18.862Z,100.00
2022-10-17T19:42:45.292Z,100.00
2022-10-17T19:45:11.784Z,100.00
2022-10-17T19:47:39.497Z,100.00
2022-10-17T19:50:06.817Z,100.00
2022-10-17T19:52:33.602Z,100.00
2022-10-17T19:55:02.760Z,100.00
2022-10-17T19:57:29.200Z,100.00
2022-10-17T19:59:56.168Z,100.00
2022-10-17T20:02:22.844Z,100.00
2022-10-17T20:04:59.943Z,100.00
2022-10-17T20:07:33.030Z,100.00
2022-10-17T20:09:59.443Z,100.00
2022-10-17T20:12:25.872Z,100.00
2022-10-17T20:14:52.285Z,100.00
2022-10-17T20:17:18.718Z,100.00
2022-10-17T20:19:45.194Z,100.00
2022-10-17T20:22:11.613Z,100.00
2022-10-17T20:24:38.038Z,100.00
2022-10-17T20:27:04.460Z,100.00
2022-10-17T20:29:30.907Z,100.00
2022-10-17T20:31:57.690Z,100.00
2022-10-17T20:34:24.268Z,100.00
2022-10-17T20:36:50.687Z,100.00
2022-10-17T20:39:19.026Z,100.00
2022-10-17T20:41:45.745Z,100.00
2022-10-17T20:44:12.933Z,100.00
2022-10-17T20:47:00.668Z,100.00
2022-10-17T20:49:26.553Z,100.00
2022-10-17T20:51:52.966Z,100.00
2022-10-17T20:54:19.398Z,100.00
2022-10-17T20:56:45.789Z,100.00
2022-10-17T20:59:14.857Z,99.90
2022-10-17T21:01:41.394Z,100.00
2022-10-17T21:04:40.508Z,100.00
2022-10-17T21:06:55.000Z,100.00
2022-10-17T21:09:22.011Z,100.00
2022-10-17T21:11:51.362Z,100.00
2022-10-17T21:14:18.268Z,100.00
2022-10-17T21:16:44.898Z,100.00
2022-10-17T21:19:12.700Z,100.00
2022-10-17T21:21:41.366Z,100.00
2022-10-17T21:24:12.963Z,100.00
2022-10-17T21:26:42.446Z,100.00
2022-10-17T21:29:09.989Z,100.00
2022-10-17T21:31:37.912Z,100.00
2022-10-17T21:34:15.734Z,100.00
2022-10-17T21:36:42.616Z,100.00
2022-10-17T21:39:11.012Z,100.00
2022-10-17T21:41:37.869Z,100.00
2022-10-17T21:44:07.132Z,100.00
2022-10-17T21:46:34.144Z,100.00
2022-10-17T21:49:01.096Z,100.00
2022-10-17T21:51:28.447Z,100.00
2022-10-17T21:53:56.818Z,100.00
2022-10-17T21:56:28.050Z,100.00
2022-10-17T21:58:55.209Z,100.00
2022-10-17T22:01:25.966Z,100.00
2022-10-17T22:03:55.413Z,100.00
2022-10-17T22:06:39.301Z,100.00
2022-10-17T22:09:18.381Z,100.00
2022-10-17T22:11:47.307Z,100.00
2022-10-17T22:14:16.556Z,100.00
2022-10-17T22:16:45.261Z,100.00
2022-10-17T22:19:13.225Z,100.00
2022-10-17T22:21:40.106Z,100.00
2022-10-17T22:24:08.890Z,100.00
2022-10-17T22:26:37.185Z,100.00
2022-10-17T22:29:04.553Z,100.00
2022-10-17T22:31:31.318Z,100.00
2022-10-17T22:33:57.770Z,100.00
2022-10-17T22:36:24.222Z,100.00
2022-10-17T22:38:51.059Z,100.00
2022-10-17T22:41:17.787Z,100.00
2022-10-17T22:43:44.337Z,100.00
2022-10-17T22:46:13.357Z,100.00
2022-10-17T22:48:40.299Z,100.00
2022-10-17T22:51:07.187Z,100.00
2022-10-17T22:53:35.130Z,100.00
2022-10-17T22:56:09.236Z,100.00
2022-10-17T22:58:35.883Z,100.00
2022-10-17T23:01:03.303Z,100.00
2022-10-17T23:03:31.161Z,100.00
2022-10-17T23:05:58.226Z,100.00
2022-10-17T23:08:25.678Z,100.00
2022-10-17T23:10:52.203Z,100.00
2022-10-17T23:13:19.814Z,100.00
2022-10-17T23:15:46.243Z,100.00
2022-10-17T23:18:12.882Z,100.00
2022-10-17T23:20:39.320Z,100.00
2022-10-17T23:23:06.586Z,100.00
2022-10-17T23:25:34.549Z,100.00
2022-10-17T23:28:01.355Z,100.00
2022-10-17T23:30:28.236Z,100.00
2022-10-17T23:32:54.741Z,100.00
2022-10-17T23:35:21.186Z,100.00
2022-10-17T23:37:47.582Z,100.00
2022-10-17T23:40:14.029Z,100.00
2022-10-17T23:42:40.445Z,100.00
2022-10-17T23:45:07.700Z,100.00
2022-10-17T23:47:34.259Z,100.00
2022-10-17T23:50:00.780Z,100.00
2022-10-17T23:52:27.326Z,100.00
2022-10-17T23:54:53.951Z,100.00
2022-10-17T23:57:20.515Z,100.00
2022-10-17T23:59:47.011Z,100.00
